Aviation Digital Data Service (ADDS)

Output produced by METARs form (0055 UTC 23 March 2019)
found at http://www.aviationweather.gov/metar/data/
 
METAR text: GMMZ 230000Z 12003KT 9999 FEW040 15/M06 Q1020 NOSIG
Conditions at: GMMZ (OUARZAZATE , MA) observed 0000 UTC 23 March 2019
Temperature: 15.0°C (59°F)
Dewpoint: -6.0°C (21°F) [RH = 23%]
Pressure (altimeter): 30.12 inches Hg (1020.0 mb)
Winds: from the ESE (120 degrees) at 3 MPH (3 knots; 1.5 m/s)
Visibility: 6 or more miles (10+ km)
Ceiling: at least 12,000 feet AGL
Clouds: few clouds at 4000 feet AGL
Weather: no significant weather observed at this time

METAR text: GMMZ 222300Z 12008KT 9999 FEW040 17/M06 Q1020 NOSIG
Conditions at: GMMZ (OUARZAZATE , MA) observed 2300 UTC 22 March 2019
Temperature: 17.0°C (63°F)
Dewpoint: -6.0°C (21°F) [RH = 20%]
Pressure (altimeter): 30.12 inches Hg (1020.0 mb)
Winds: from the ESE (120 degrees) at 9 MPH (8 knots; 4.1 m/s)
Visibility: 6 or more miles (10+ km)
Ceiling: at least 12,000 feet AGL
Clouds: few clouds at 4000 feet AGL
Weather: no significant weather observed at this time

METAR text: GMMZ 222200Z 16006KT 9999 FEW040 17/M06 Q1020 NOSIG
Conditions at: GMMZ (OUARZAZATE , MA) observed 2200 UTC 22 March 2019
Temperature: 17.0°C (63°F)
Dewpoint: -6.0°C (21°F) [RH = 20%]
Pressure (altimeter): 30.12 inches Hg (1020.0 mb)
Winds: from the SSE (160 degrees) at 7 MPH (6 knots; 3.1 m/s)
Visibility: 6 or more miles (10+ km)
Ceiling: at least 12,000 feet AGL
Clouds: few clouds at 4000 feet AGL
Weather: no significant weather observed at this time

METAR text: GMMZ 222100Z 16009KT 9999 FEW040 17/M06 Q1020 NOSIG
Conditions at: GMMZ (OUARZAZATE , MA) observed 2100 UTC 22 March 2019
Temperature: 17.0°C (63°F)
Dewpoint: -6.0°C (21°F) [RH = 20%]
Pressure (altimeter): 30.12 inches Hg (1020.0 mb)
Winds: from the SSE (160 degrees) at 10 MPH (9 knots; 4.6 m/s)
Visibility: 6 or more miles (10+ km)
Ceiling: at least 12,000 feet AGL
Clouds: few clouds at 4000 feet AGL
Weather: no significant weather observed at this time

METAR text: GMMZ 222000Z 17010KT 9999 FEW040 18/M07 Q1019 NOSIG
Conditions at: GMMZ (OUARZAZATE , MA) observed 2000 UTC 22 March 2019
Temperature: 18.0°C (64°F)
Dewpoint: -7.0°C (19°F) [RH = 18%]
Pressure (altimeter): 30.09 inches Hg (1019.0 mb)
Winds: from the S (170 degrees) at 12 MPH (10 knots; 5.1 m/s)
Visibility: 6 or more miles (10+ km)
Ceiling: at least 12,000 feet AGL
Clouds: few clouds at 4000 feet AGL
Weather: no significant weather observed at this time

METAR text: GMMZ 221900Z 16013KT 9999 FEW040 SCT200 19/M07 Q1018 NOSIG
Conditions at: GMMZ (OUARZAZATE , MA) observed 1900 UTC 22 March 2019
Temperature: 19.0°C (66°F)
Dewpoint: -7.0°C (19°F) [RH = 16%]
Pressure (altimeter): 30.06 inches Hg (1018.0 mb)
Winds: from the SSE (160 degrees) at 15 MPH (13 knots; 6.7 m/s)
Visibility: 6 or more miles (10+ km)
Ceiling: at least 12,000 feet AGL
Clouds: few clouds at 4000 feet AGL
scattered clouds at 20000 feet AGL
Weather: no significant weather observed at this time

METAR text: GMMZ 221800Z 16009KT 9999 FEW040 SCT200 20/M07 Q1017 NOSIG
Conditions at: GMMZ (OUARZAZATE , MA) observed 1800 UTC 22 March 2019
Temperature: 20.0°C (68°F)
Dewpoint: -7.0°C (19°F) [RH = 15%]
Pressure (altimeter): 30.03 inches Hg (1017.0 mb)
Winds: from the SSE (160 degrees) at 10 MPH (9 knots; 4.6 m/s)
Visibility: 6 or more miles (10+ km)
Ceiling: at least 12,000 feet AGL
Clouds: few clouds at 4000 feet AGL
scattered clouds at 20000 feet AGL
Weather: no significant weather observed at this time

METAR text: GMMZ 221700Z 15006KT 9999 FEW040 SCT200 21/M08 Q1017 NOSIG
Conditions at: GMMZ (OUARZAZATE , MA) observed 1700 UTC 22 March 2019
Temperature: 21.0°C (70°F)
Dewpoint: -8.0°C (18°F) [RH = 13%]
Pressure (altimeter): 30.03 inches Hg (1017.0 mb)
Winds: from the SSE (150 degrees) at 7 MPH (6 knots; 3.1 m/s)
Visibility: 6 or more miles (10+ km)
Ceiling: at least 12,000 feet AGL
Clouds: few clouds at 4000 feet AGL
scattered clouds at 20000 feet AGL
Weather: no significant weather observed at this time

METAR text: GMMZ 221600Z 24004KT 9999 FEW040 21/M09 Q1017 NOSIG
Conditions at: GMMZ (OUARZAZATE , MA) observed 1600 UTC 22 March 2019
Temperature: 21.0°C (70°F)
Dewpoint: -9.0°C (16°F) [RH = 12%]
Pressure (altimeter): 30.03 inches Hg (1017.0 mb)
Winds: from the WSW (240 degrees) at 5 MPH (4 knots; 2.1 m/s)
Visibility: 6 or more miles (10+ km)
Ceiling: at least 12,000 feet AGL
Clouds: few clouds at 4000 feet AGL
Weather: no significant weather observed at this time

METAR text: GMMZ 221500Z 20004KT 9999 FEW040 21/M08 Q1017 NOSIG
Conditions at: GMMZ (OUARZAZATE , MA) observed 1500 UTC 22 March 2019
Temperature: 21.0°C (70°F)
Dewpoint: -8.0°C (18°F) [RH = 13%]
Pressure (altimeter): 30.03 inches Hg (1017.0 mb)
Winds: from the SSW (200 degrees) at 5 MPH (4 knots; 2.1 m/s)
Visibility: 6 or more miles (10+ km)
Ceiling: at least 12,000 feet AGL
Clouds: few clouds at 4000 feet AGL
Weather: no significant weather observed at this time

METAR text: GMMZ 221400Z 19006KT 9999 FEW040 19/M09 Q1018 NOSIG
Conditions at: GMMZ (OUARZAZATE , MA) observed 1400 UTC 22 March 2019
Temperature: 19.0°C (66°F)
Dewpoint: -9.0°C (16°F) [RH = 14%]
Pressure (altimeter): 30.06 inches Hg (1018.0 mb)
Winds: from the S (190 degrees) at 7 MPH (6 knots; 3.1 m/s)
Visibility: 6 or more miles (10+ km)
Ceiling: at least 12,000 feet AGL
Clouds: few clouds at 4000 feet AGL
Weather: no significant weather observed at this time

METAR text: GMMZ 221300Z 04004KT CAVOK 19/M05 Q1019 NOSIG
Conditions at: GMMZ (OUARZAZATE , MA) observed 1300 UTC 22 March 2019
Temperature: 19.0°C (66°F)
Dewpoint: -5.0°C (23°F) [RH = 19%]
Pressure (altimeter): 30.09 inches Hg (1019.0 mb)
Winds: from the NE (40 degrees) at 5 MPH (4 knots; 2.1 m/s)
Visibility: 6 or more miles (10+ km)
Ceiling: ceiling and visibility are OK
Clouds: unknown
Weather: no significant weather observed at this time

METAR text: GMMZ 221200Z 13004KT CAVOK 17/M05 Q1020 NOSIG
Conditions at: GMMZ (OUARZAZATE , MA) observed 1200 UTC 22 March 2019
Temperature: 17.0°C (63°F)
Dewpoint: -5.0°C (23°F) [RH = 22%]
Pressure (altimeter): 30.12 inches Hg (1020.0 mb)
Winds: from the SE (130 degrees) at 5 MPH (4 knots; 2.1 m/s)
Visibility: 6 or more miles (10+ km)
Ceiling: ceiling and visibility are OK
Clouds: unknown
Weather: no significant weather observed at this time

METAR text: GMMZ 221100Z VRB02KT CAVOK 16/M05 Q1021 NOSIG
Conditions at: GMMZ (OUARZAZATE , MA) observed 1100 UTC 22 March 2019
Temperature: 16.0°C (61°F)
Dewpoint: -5.0°C (23°F) [RH = 23%]
Pressure (altimeter): 30.15 inches Hg (1021.0 mb)
Winds: variable direction winds at 2 MPH (2 knots; 1.0 m/s)
Visibility: 6 or more miles (10+ km)
Ceiling: ceiling and visibility are OK
Clouds: unknown
Weather: no significant weather observed at this time

METAR text: GMMZ 221000Z 14003KT CAVOK 14/M04 Q1022 NOSIG
Conditions at: GMMZ (OUARZAZATE , MA) observed 1000 UTC 22 March 2019
Temperature: 14.0°C (57°F)
Dewpoint: -4.0°C (25°F) [RH = 28%]
Pressure (altimeter): 30.18 inches Hg (1022.0 mb)
Winds: from the SE (140 degrees) at 3 MPH (3 knots; 1.5 m/s)
Visibility: 6 or more miles (10+ km)
Ceiling: ceiling and visibility are OK
Clouds: unknown
Weather: no significant weather observed at this time

METAR text: GMMZ 220900Z 11003KT CAVOK 13/M05 Q1022 NOSIG
Conditions at: GMMZ (OUARZAZATE , MA) observed 0900 UTC 22 March 2019
Temperature: 13.0°C (55°F)
Dewpoint: -5.0°C (23°F) [RH = 28%]
Pressure (altimeter): 30.18 inches Hg (1022.0 mb)
Winds: from the ESE (110 degrees) at 3 MPH (3 knots; 1.5 m/s)
Visibility: 6 or more miles (10+ km)
Ceiling: ceiling and visibility are OK
Clouds: unknown
Weather: no significant weather observed at this time

METAR text: GMMZ 220800Z 00000KT CAVOK 11/M05 Q1021 NOSIG
Conditions at: GMMZ (OUARZAZATE , MA) observed 0800 UTC 22 March 2019
Temperature: 11.0°C (52°F)
Dewpoint: -5.0°C (23°F) [RH = 32%]
Pressure (altimeter): 30.15 inches Hg (1021.0 mb)
Winds: calm
Visibility: 6 or more miles (10+ km)
Ceiling: ceiling and visibility are OK
Clouds: unknown
Weather: no significant weather observed at this time

METAR text: GMMZ 220700Z VRB02KT CAVOK 09/M05 Q1020 NOSIG
Conditions at: GMMZ (OUARZAZATE , MA) observed 0700 UTC 22 March 2019
Temperature: 9.0°C (48°F)
Dewpoint: -5.0°C (23°F) [RH = 37%]
Pressure (altimeter): 30.12 inches Hg (1020.0 mb)
Winds: variable direction winds at 2 MPH (2 knots; 1.0 m/s)
Visibility: 6 or more miles (10+ km)
Ceiling: ceiling and visibility are OK
Clouds: unknown
Weather: no significant weather observed at this time

METAR text: GMMZ 220600Z 10002KT CAVOK 09/M06 Q1020 NOSIG
Conditions at: GMMZ (OUARZAZATE , MA) observed 0600 UTC 22 March 2019
Temperature: 9.0°C (48°F)
Dewpoint: -6.0°C (21°F) [RH = 34%]
Pressure (altimeter): 30.12 inches Hg (1020.0 mb)
Winds: from the E (100 degrees) at 2 MPH (2 knots; 1.0 m/s)
Visibility: 6 or more miles (10+ km)
Ceiling: ceiling and visibility are OK
Clouds: unknown
Weather: no significant weather observed at this time

METAR text: GMMZ 220500Z 10004KT CAVOK 09/M06 Q1019 NOSIG
Conditions at: GMMZ (OUARZAZATE , MA) observed 0500 UTC 22 March 2019
Temperature: 9.0°C (48°F)
Dewpoint: -6.0°C (21°F) [RH = 34%]
Pressure (altimeter): 30.09 inches Hg (1019.0 mb)
Winds: from the E (100 degrees) at 5 MPH (4 knots; 2.1 m/s)
Visibility: 6 or more miles (10+ km)
Ceiling: ceiling and visibility are OK
Clouds: unknown
Weather: no significant weather observed at this time

METAR text: GMMZ 220400Z 09007KT CAVOK 10/M06 Q1019 NOSIG
Conditions at: GMMZ (OUARZAZATE , MA) observed 0400 UTC 22 March 2019
Temperature: 10.0°C (50°F)
Dewpoint: -6.0°C (21°F) [RH = 32%]
Pressure (altimeter): 30.09 inches Hg (1019.0 mb)
Winds: from the E (90 degrees) at 8 MPH (7 knots; 3.6 m/s)
Visibility: 6 or more miles (10+ km)
Ceiling: ceiling and visibility are OK
Clouds: unknown
Weather: no significant weather observed at this time

METAR text: GMMZ 220300Z 07009KT CAVOK 10/M06 Q1019 NOSIG
Conditions at: GMMZ (OUARZAZATE , MA) observed 0300 UTC 22 March 2019
Temperature: 10.0°C (50°F)
Dewpoint: -6.0°C (21°F) [RH = 32%]
Pressure (altimeter): 30.09 inches Hg (1019.0 mb)
Winds: from the ENE (70 degrees) at 10 MPH (9 knots; 4.6 m/s)
Visibility: 6 or more miles (10+ km)
Ceiling: ceiling and visibility are OK
Clouds: unknown
Weather: no significant weather observed at this time

METAR text: GMMZ 220200Z 08011KT CAVOK 11/M06 Q1019 NOSIG
Conditions at: GMMZ (OUARZAZATE , MA) observed 0200 UTC 22 March 2019
Temperature: 11.0°C (52°F)
Dewpoint: -6.0°C (21°F) [RH = 30%]
Pressure (altimeter): 30.09 inches Hg (1019.0 mb)
Winds: from the E (80 degrees) at 13 MPH (11 knots; 5.7 m/s)
Visibility: 6 or more miles (10+ km)
Ceiling: ceiling and visibility are OK
Clouds: unknown
Weather: no significant weather observed at this time

METAR text: GMMZ 220100Z 07011KT CAVOK 12/M06 Q1019 NOSIG
Conditions at: GMMZ (OUARZAZATE , MA) observed 0100 UTC 22 March 2019
Temperature: 12.0°C (54°F)
Dewpoint: -6.0°C (21°F) [RH = 28%]
Pressure (altimeter): 30.09 inches Hg (1019.0 mb)
Winds: from the ENE (70 degrees) at 13 MPH (11 knots; 5.7 m/s)
Visibility: 6 or more miles (10+ km)
Ceiling: ceiling and visibility are OK
Clouds: unknown
Weather: no significant weather observed at this time

METAR text: GMMZ 220000Z 06011KT CAVOK 13/M06 Q1019 NOSIG
Conditions at: GMMZ (OUARZAZATE , MA) observed 0000 UTC 22 March 2019
Temperature: 13.0°C (55°F)
Dewpoint: -6.0°C (21°F) [RH = 26%]
Pressure (altimeter): 30.09 inches Hg (1019.0 mb)
Winds: from the ENE (60 degrees) at 13 MPH (11 knots; 5.7 m/s)
Visibility: 6 or more miles (10+ km)
Ceiling: ceiling and visibility are OK
Clouds: unknown
Weather: no significant weather observed at this time

METAR text: GMMZ 212300Z 08006KT CAVOK 14/M04 Q1019 NOSIG
Conditions at: GMMZ (OUARZAZATE , MA) observed 2300 UTC 21 March 2019
Temperature: 14.0°C (57°F)
Dewpoint: -4.0°C (25°F) [RH = 28%]
Pressure (altimeter): 30.09 inches Hg (1019.0 mb)
Winds: from the E (80 degrees) at 7 MPH (6 knots; 3.1 m/s)
Visibility: 6 or more miles (10+ km)
Ceiling: ceiling and visibility are OK
Clouds: unknown
Weather: no significant weather observed at this time

METAR text: GMMZ 212200Z 13007KT CAVOK 16/M07 Q1018 NOSIG
Conditions at: GMMZ (OUARZAZATE , MA) observed 2200 UTC 21 March 2019
Temperature: 16.0°C (61°F)
Dewpoint: -7.0°C (19°F) [RH = 20%]
Pressure (altimeter): 30.06 inches Hg (1018.0 mb)
Winds: from the SE (130 degrees) at 8 MPH (7 knots; 3.6 m/s)
Visibility: 6 or more miles (10+ km)
Ceiling: ceiling and visibility are OK
Clouds: unknown
Weather: no significant weather observed at this time

METAR text: GMMZ 212100Z 14006KT CAVOK 16/M07 Q1018 NOSIG
Conditions at: GMMZ (OUARZAZATE , MA) observed 2100 UTC 21 March 2019
Temperature: 16.0°C (61°F)
Dewpoint: -7.0°C (19°F) [RH = 20%]
Pressure (altimeter): 30.06 inches Hg (1018.0 mb)
Winds: from the SE (140 degrees) at 7 MPH (6 knots; 3.1 m/s)
Visibility: 6 or more miles (10+ km)
Ceiling: ceiling and visibility are OK
Clouds: unknown
Weather: no significant weather observed at this time

METAR text: GMMZ 212000Z 15009KT 9999 FEW040 17/M07 Q1017 NOSIG
Conditions at: GMMZ (OUARZAZATE , MA) observed 2000 UTC 21 March 2019
Temperature: 17.0°C (63°F)
Dewpoint: -7.0°C (19°F) [RH = 19%]
Pressure (altimeter): 30.03 inches Hg (1017.0 mb)
Winds: from the SSE (150 degrees) at 10 MPH (9 knots; 4.6 m/s)
Visibility: 6 or more miles (10+ km)
Ceiling: at least 12,000 feet AGL
Clouds: few clouds at 4000 feet AGL
Weather: no significant weather observed at this time

METAR text: GMMZ 211900Z 15011KT 9999 FEW040 17/M07 Q1014 NOSIG
Conditions at: GMMZ (OUARZAZATE , MA) observed 1900 UTC 21 March 2019
Temperature: 17.0°C (63°F)
Dewpoint: -7.0°C (19°F) [RH = 19%]
Pressure (altimeter): 29.94 inches Hg (1014.0 mb)
Winds: from the SSE (150 degrees) at 13 MPH (11 knots; 5.7 m/s)
Visibility: 6 or more miles (10+ km)
Ceiling: at least 12,000 feet AGL
Clouds: few clouds at 4000 feet AGL
Weather: no significant weather observed at this time

METAR text: GMMZ 211800Z 17012KT 9999 FEW040 19/M07 Q1014 NOSIG
Conditions at: GMMZ (OUARZAZATE , MA) observed 1800 UTC 21 March 2019
Temperature: 19.0°C (66°F)
Dewpoint: -7.0°C (19°F) [RH = 16%]
Pressure (altimeter): 29.94 inches Hg (1014.0 mb)
Winds: from the S (170 degrees) at 14 MPH (12 knots; 6.2 m/s)
Visibility: 6 or more miles (10+ km)
Ceiling: at least 12,000 feet AGL
Clouds: few clouds at 4000 feet AGL
Weather: no significant weather observed at this time

METAR text: GMMZ 211700Z 18008KT 9999 FEW040 20/M07 Q1014 NOSIG
Conditions at: GMMZ (OUARZAZATE , MA) observed 1700 UTC 21 March 2019
Temperature: 20.0°C (68°F)
Dewpoint: -7.0°C (19°F) [RH = 15%]
Pressure (altimeter): 29.94 inches Hg (1014.0 mb)
Winds: from the S (180 degrees) at 9 MPH (8 knots; 4.1 m/s)
Visibility: 6 or more miles (10+ km)
Ceiling: at least 12,000 feet AGL
Clouds: few clouds at 4000 feet AGL
Weather: no significant weather observed at this time

METAR text: GMMZ 211600Z 21009KT 9999 FEW040 20/M07 Q1014 NOSIG
Conditions at: GMMZ (OUARZAZATE , MA) observed 1600 UTC 21 March 2019
Temperature: 20.0°C (68°F)
Dewpoint: -7.0°C (19°F) [RH = 15%]
Pressure (altimeter): 29.94 inches Hg (1014.0 mb)
Winds: from the SSW (210 degrees) at 10 MPH (9 knots; 4.6 m/s)
Visibility: 6 or more miles (10+ km)
Ceiling: at least 12,000 feet AGL
Clouds: few clouds at 4000 feet AGL
Weather: no significant weather observed at this time

METAR text: GMMZ 211500Z 17006KT 9999 FEW040 20/M07 Q1015 NOSIG
Conditions at: GMMZ (OUARZAZATE , MA) observed 1500 UTC 21 March 2019
Temperature: 20.0°C (68°F)
Dewpoint: -7.0°C (19°F) [RH = 15%]
Pressure (altimeter): 29.97 inches Hg (1015.0 mb)
Winds: from the S (170 degrees) at 7 MPH (6 knots; 3.1 m/s)
Visibility: 6 or more miles (10+ km)
Ceiling: at least 12,000 feet AGL
Clouds: few clouds at 4000 feet AGL
Weather: no significant weather observed at this time

METAR text: GMMZ 211400Z 16006KT 9999 FEW040 19/M07 Q1016 NOSIG
Conditions at: GMMZ (OUARZAZATE , MA) observed 1400 UTC 21 March 2019
Temperature: 19.0°C (66°F)
Dewpoint: -7.0°C (19°F) [RH = 16%]
Pressure (altimeter): 30.00 inches Hg (1016.0 mb)
Winds: from the SSE (160 degrees) at 7 MPH (6 knots; 3.1 m/s)
Visibility: 6 or more miles (10+ km)
Ceiling: at least 12,000 feet AGL
Clouds: few clouds at 4000 feet AGL
Weather: no significant weather observed at this time

METAR text: GMMZ 211300Z 07003KT CAVOK 18/M07 Q1017 NOSIG
Conditions at: GMMZ (OUARZAZATE , MA) observed 1300 UTC 21 March 2019
Temperature: 18.0°C (64°F)
Dewpoint: -7.0°C (19°F) [RH = 18%]
Pressure (altimeter): 30.03 inches Hg (1017.0 mb)
Winds: from the ENE (70 degrees) at 3 MPH (3 knots; 1.5 m/s)
Visibility: 6 or more miles (10+ km)
Ceiling: ceiling and visibility are OK
Clouds: unknown
Weather: no significant weather observed at this time

Forecast for: GMMZ (OUARZAZATE , MA)
Text: TAF GMMZ 222300Z 2300/2406 17008KT 9999 SCT040
Forecast period: 0000 to 1200 UTC 23 March 2019
Forecast type: FROM: standard forecast or significant change
Winds: from the S (170 degrees) at 9 MPH (8 knots; 4.1 m/s)
Visibility: 6 or more miles 10+ km)
Ceiling: at least 12,000 feet AGL
Clouds: scattered clouds at 4000 feet AGL
Weather: no significant weather forecast for this period
Text: BECMG 2312/2316 5000 RA BKN040 FEW050TCU
Forecast period: 1200 UTC 23 March 2019 to 0600 UTC 24 March 2019
Forecast type: BECOMING: Conditions expected to become as follows by 1600 UTC 23 March 2019
Winds: from the S (170 degrees) at 9 MPH (8 knots; 4.1 m/s)
Visibility: 3 miles (5 km)
Ceiling: 4000 feet AGL
Clouds: broken clouds at 4000 feet AGL
few clouds at 5000 feet AGL
Weather: RA  (moderate rain)
Text: PROB30
Forecast period: 1500 to 2200 UTC 23 March 2019
Forecast type: TEMPORARY: The following changes expected for less than half the time period
Winds: from the SSE (160 degrees) at 21 MPH (18 knots; 9.3 m/s)
Visibility: missing
Ceiling: at least 12,000 feet AGL
Clouds: few clouds at 5000 feet AGL
Weather: TS  (thunderstorm)